Time;durP1;ratioP1;P1;durP2;ratioP2;P2;SDS_P1;SDS_P2;PMS_P1;PMS_P2;Temp;Humidity;BMP_temperature;BMP_pressure;BME280_temperature;BME280_humidity;BME280_pressure;Samples;Min_cycle;Max_cycle;Signal;HPM_P1;HPM_P2
2024/03/18 00:00:12;;;;;;;0.77;0.77;;;;;;;-2.07;66.26;101600.56;5089770;28;20093;-67
2024/03/18 00:02:37;;;;;;;0.50;0.50;;;;;;;-2.05;66.26;101601.53;5108048;28;20057;-68
2024/03/18 00:05:04;;;;;;;0.55;0.55;;;;;;;-2.11;66.44;101593.53;5089605;28;20028;-68
2024/03/18 00:07:29;;;;;;;0.60;0.60;;;;;;;-2.09;66.21;101599.56;5107865;28;20043;-68
2024/03/18 00:09:54;;;;;;;0.55;0.55;;;;;;;-2.11;66.49;101601.16;5089772;28;20067;-68
2024/03/18 00:12:20;;;;;;;0.50;0.50;;;;;;;-2.18;66.52;101586.28;5089612;28;20021;-69
2024/03/18 00:14:46;;;;;;;0.50;0.50;;;;;;;-2.14;66.56;101596.72;5107691;28;20020;-67
2024/03/18 00:17:11;;;;;;;0.60;0.60;;;;;;;-2.16;66.74;101598.31;5107815;28;20031;-68
2024/03/18 00:19:37;;;;;;;0.50;0.50;;;;;;;-2.18;66.93;101599.00;5107526;28;20024;-67
2024/03/18 00:22:02;;;;;;;1.85;1.05;;;;;;;-2.24;66.97;101580.00;5107524;28;20119;-68
2024/03/18 00:24:28;;;;;;;0.50;0.50;;;;;;;-2.22;67.34;101586.88;5107719;28;20059;-69
2024/03/18 00:26:53;;;;;;;0.82;0.82;;;;;;;-2.25;67.38;101590.09;5107469;28;20349;-67
2024/03/18 00:29:19;;;;;;;0.60;0.60;;;;;;;-2.24;67.38;101585.09;5089159;28;20023;-68
2024/03/18 00:31:45;;;;;;;0.60;0.60;;;;;;;-2.25;67.40;101582.44;5107490;28;20020;-68
2024/03/18 00:34:11;;;;;;;0.60;0.60;;;;;;;-2.21;67.45;101588.63;5089271;28;20099;-68
2024/03/18 00:36:36;;;;;;;0.60;0.60;;;;;;;-2.21;67.52;101581.00;5089249;28;20097;-68
2024/03/18 00:39:02;;;;;;;0.60;0.60;;;;;;;-2.23;67.70;101575.81;5107406;28;20044;-68
2024/03/18 00:41:46;;;;;;;0.80;0.80;;;;;;;-2.15;67.85;101573.75;5089056;28;20088;-68
2024/03/18 00:44:15;;;;;;;1.67;1.50;;;;;;;-2.17;67.87;101578.72;5107538;28;20030;-67
2024/03/18 00:46:41;;;;;;;0.60;0.60;;;;;;;-2.18;67.79;101569.34;5107049;28;20134;-68
2024/03/18 00:49:07;;;;;;;0.60;0.60;;;;;;;-2.14;67.84;101572.97;5107114;28;20081;-68
2024/03/18 00:51:32;;;;;;;0.60;0.60;;;;;;;-2.13;67.85;101573.06;5088528;28;20039;-68
2024/03/18 00:53:58;;;;;;;0.70;0.70;;;;;;;-2.14;67.93;101565.34;5088938;28;20172;-68
2024/03/18 00:56:23;;;;;;;0.60;0.60;;;;;;;-2.21;67.51;101553.00;5106960;28;20076;-68
2024/03/18 00:58:49;;;;;;;1.95;0.90;;;;;;;-2.15;67.84;101550.84;5106266;28;20020;-68
2024/03/18 01:01:15;;;;;;;0.60;0.60;;;;;;;-2.06;67.57;101564.13;5106769;28;20020;-67
2024/03/18 01:03:40;;;;;;;0.60;0.60;;;;;;;-2.06;67.31;101558.19;5106924;28;20031;-69
2024/03/18 01:06:05;;;;;;;0.50;0.50;;;;;;;-2.07;67.37;101566.56;5106293;28;20081;-67
2024/03/18 01:08:31;;;;;;;0.50;0.50;;;;;;;-2.07;67.35;101558.94;5107024;28;20031;-67
2024/03/18 01:10:56;;;;;;;0.60;0.60;;;;;;;-2.01;66.68;101557.66;5106619;28;20039;-68
2024/03/18 01:13:22;;;;;;;0.60;0.60;;;;;;;-2.08;66.90;101549.56;5088364;28;20028;-68
2024/03/18 01:15:47;;;;;;;0.55;0.55;;;;;;;-2.07;66.95;101547.09;5106567;28;20031;-68
2024/03/18 01:18:13;;;;;;;0.70;0.70;;;;;;;-1.93;66.06;101535.22;5088067;28;20050;-68
2024/03/18 01:20:39;;;;;;;0.85;0.85;;;;;;;-2.05;66.03;101548.09;5106486;28;20055;-68
2024/03/18 01:23:05;;;;;;;0.60;0.60;;;;;;;-2.05;65.66;101547.19;5106439;28;20028;-69
2024/03/18 01:25:32;;;;;;;0.60;0.60;;;;;;;-2.17;66.11;101538.03;5106330;28;20069;-69
2024/03/18 01:27:58;;;;;;;0.60;0.60;;;;;;;-2.12;65.61;101536.66;5106207;28;20038;-69
2024/03/18 01:30:24;;;;;;;0.60;0.60;;;;;;;-2.08;65.42;101539.38;5088444;28;20020;-68
2024/03/18 01:32:49;;;;;;;0.60;0.60;;;;;;;-2.13;65.47;101554.38;5106210;28;20352;-68
2024/03/18 01:35:15;;;;;;;1.05;0.80;;;;;;;-2.16;65.41;101542.34;5087465;28;20119;-68
2024/03/18 01:37:43;;;;;;;0.50;0.50;;;;;;;-2.17;65.46;101537.16;5106034;28;20024;-68
2024/03/18 01:40:11;;;;;;;0.60;0.60;;;;;;;-2.10;65.10;101552.00;5087783;28;20020;-69
2024/03/18 01:42:41;;;;;;;0.60;0.60;;;;;;;-2.07;64.28;101534.38;5106066;28;20047;-69
2024/03/18 01:45:08;;;;;;;0.60;0.60;;;;;;;-2.21;64.47;101545.38;5106030;28;20027;-67
2024/03/18 01:47:33;;;;;;;0.60;0.60;;;;;;;-2.19;64.71;101538.72;5087706;28;20019;-69
2024/03/18 01:49:58;;;;;;;0.50;0.50;;;;;;;-2.04;63.61;101551.50;5106184;28;20035;-69
2024/03/18 01:52:24;;;;;;;0.57;0.57;;;;;;;-2.16;63.50;101537.25;5105710;28;20052;-69
2024/03/18 01:54:50;;;;;;;0.52;0.52;;;;;;;-2.16;63.28;101547.44;5105709;28;20043;-69
2024/03/18 01:57:16;;;;;;;0.63;0.63;;;;;;;-2.33;63.48;101541.28;5105906;28;20028;-68
2024/03/18 01:59:41;;;;;;;0.60;0.60;;;;;;;-2.37;63.97;101541.88;5105824;28;20032;-69
2024/03/18 02:02:07;;;;;;;0.63;0.63;;;;;;;-2.36;63.54;101543.63;5087509;28;20031;-68
2024/03/18 02:04:33;;;;;;;0.77;0.77;;;;;;;-2.39;63.38;101535.78;5105726;28;20020;-69
2024/03/18 02:06:59;;;;;;;0.60;0.60;;;;;;;-2.54;63.71;101498.44;5105785;28;20487;-70
2024/03/18 02:09:25;;;;;;;0.50;0.50;;;;;;;-2.38;63.17;101523.19;5086559;28;20028;-68
2024/03/18 02:11:51;;;;;;;0.50;0.50;;;;;;;-2.27;62.86;101523.84;5105787;28;20019;-70
2024/03/18 02:14:17;;;;;;;0.60;0.60;;;;;;;-2.39;62.81;101518.88;5105662;28;20028;-69
2024/03/18 02:16:43;;;;;;;0.50;0.50;;;;;;;-2.34;62.45;101526.81;5087408;28;20049;-69
2024/03/18 02:19:09;;;;;;;0.60;0.60;;;;;;;-2.45;62.26;101512.53;5105719;28;20023;-69
2024/03/18 02:21:34;;;;;;;0.60;0.60;;;;;;;-2.54;62.76;101513.69;5087306;28;20024;-69
2024/03/18 02:24:00;;;;;;;0.52;0.52;;;;;;;-2.51;62.31;101523.19;5105739;28;20154;-69
2024/03/18 02:26:25;;;;;;;0.60;0.60;;;;;;;-2.65;62.71;101519.78;5105437;28;20031;-68
2024/03/18 02:28:51;;;;;;;0.60;0.60;;;;;;;-2.64;62.71;101521.53;5105365;28;20077;-69
2024/03/18 02:31:17;;;;;;;0.50;0.50;;;;;;;-2.74;63.25;101523.50;5105455;28;20012;-69
2024/03/18 02:33:43;;;;;;;0.70;0.70;;;;;;;-2.63;62.63;101534.34;5105561;28;20042;-70
2024/03/18 02:36:09;;;;;;;0.60;0.60;;;;;;;-2.73;63.02;101521.81;5105122;28;20028;-68
2024/03/18 02:38:34;;;;;;;0.60;0.60;;;;;;;-2.76;63.05;101516.53;5105586;28;20483;-70
2024/03/18 02:41:00;;;;;;;0.60;0.60;;;;;;;-2.75;62.96;101523.41;5086867;28;20054;-68
2024/03/18 02:43:25;;;;;;;0.50;0.50;;;;;;;-2.75;62.87;101518.31;5105314;28;20036;-68
2024/03/18 02:45:51;;;;;;;0.55;0.55;;;;;;;-2.87;63.18;101515.84;5105263;28;20357;-68
2024/03/18 02:48:19;;;;;;;2.95;0.60;;;;;;;-2.79;62.92;101514.69;5087237;28;20079;-70
2024/03/18 02:50:45;;;;;;;0.60;0.60;;;;;;;-2.70;62.88;101526.22;5105006;28;20043;-69
2024/03/18 02:53:10;;;;;;;0.70;0.70;;;;;;;-2.82;63.02;101526.31;5105208;28;20028;-69
2024/03/18 02:55:36;;;;;;;0.50;0.50;;;;;;;-2.86;63.01;101515.94;5086972;28;20020;-69
2024/03/18 02:58:01;;;;;;;0.50;0.50;;;;;;;-2.87;63.15;101523.47;5105167;28;20024;-68
2024/03/18 03:00:27;;;;;;;0.65;0.65;;;;;;;-2.92;63.39;101525.72;5105168;28;20467;-68
2024/03/18 03:02:52;;;;;;;0.50;0.50;;;;;;;-3.01;63.47;101509.88;5086621;28;20472;-70
2024/03/18 03:05:18;;;;;;;0.50;0.50;;;;;;;-2.99;63.33;101514.28;5086920;28;20024;-68
2024/03/18 03:07:43;;;;;;;0.60;0.60;;;;;;;-3.01;63.50;101513.31;5105029;28;20051;-69
2024/03/18 03:10:09;;;;;;;0.60;0.60;;;;;;;-3.08;63.50;101495.03;5105051;28;20028;-68
2024/03/18 03:12:34;;;;;;;0.60;0.60;;;;;;;-3.07;63.54;101504.41;5105103;28;20118;-69
2024/03/18 03:15:00;;;;;;;0.60;0.60;;;;;;;-3.05;63.61;101510.47;5104977;28;20034;-69
2024/03/18 03:17:27;;;;;;;0.63;0.63;;;;;;;-3.07;63.49;101512.03;5105033;28;20400;-68
2024/03/18 03:19:53;;;;;;;0.60;0.60;;;;;;;-3.00;63.34;101502.34;5104895;28;20032;-70
2024/03/18 03:22:21;;;;;;;2.30;2.15;;;;;;;-3.04;63.32;101510.56;5107840;28;20069;-68
2024/03/18 03:24:47;;;;;;;0.60;0.60;;;;;;;-3.18;63.58;101506.25;5108751;28;20153;-68
2024/03/18 03:27:14;;;;;;;0.60;0.60;;;;;;;-3.13;63.46;101502.34;5108739;28;20049;-68
2024/03/18 03:29:39;;;;;;;0.60;0.60;;;;;;;-3.18;63.90;101502.03;5108276;28;20374;-69
2024/03/18 03:32:05;;;;;;;0.60;0.60;;;;;;;-3.18;63.50;101496.09;5108565;28;20024;-68
2024/03/18 03:34:30;;;;;;;0.60;0.60;;;;;;;-3.20;63.92;101501.06;5108562;28;20035;-69
2024/03/18 03:36:56;;;;;;;0.60;0.60;;;;;;;-3.21;63.66;101509.44;5108476;28;20024;-68
2024/03/18 03:39:23;;;;;;;0.60;0.60;;;;;;;-3.26;63.98;101503.22;5108516;28;20032;-68
2024/03/18 03:41:48;;;;;;;0.60;0.60;;;;;;;-3.30;63.87;101499.56;5108582;28;20023;-69
2024/03/18 03:44:14;;;;;;;0.60;0.60;;;;;;;-3.20;63.58;101503.59;5108377;28;20379;-69
2024/03/18 03:46:39;;;;;;;0.60;0.60;;;;;;;-3.35;63.76;101490.75;5108615;28;20101;-69
2024/03/18 03:49:05;;;;;;;0.60;0.60;;;;;;;-3.42;64.16;101492.00;5089960;28;20047;-68
2024/03/18 03:51:30;;;;;;;0.60;0.60;;;;;;;-3.40;64.15;101494.66;5089445;28;20052;-69
2024/03/18 03:53:57;;;;;;;0.60;0.60;;;;;;;-3.44;64.28;101492.69;5108681;28;20027;-69
2024/03/18 03:56:23;;;;;;;0.60;0.60;;;;;;;-3.43;64.43;101489.38;5107849;28;20084;-68
2024/03/18 03:58:50;;;;;;;0.60;0.60;;;;;;;-3.49;64.36;101475.50;5107870;28;20055;-69
2024/03/18 04:01:17;;;;;;;0.50;0.50;;;;;;;-3.47;64.55;101487.41;5089712;28;20027;-68
2024/03/18 04:03:42;;;;;;;0.60;0.60;;;;;;;-3.44;64.39;101464.75;5107924;28;20055;-69
2024/03/18 04:06:08;;;;;;;0.60;0.60;;;;;;;-3.49;64.29;101487.31;5107946;28;20020;-68
2024/03/18 04:08:33;;;;;;;0.60;0.60;;;;;;;-3.45;64.21;101479.09;5107878;28;20073;-68
2024/03/18 04:10:59;;;;;;;0.60;0.60;;;;;;;-3.53;64.36;101478.59;5107682;28;20480;-68
2024/03/18 04:13:24;;;;;;;0.60;0.60;;;;;;;-3.54;64.62;101481.03;5107902;28;20026;-68
2024/03/18 04:15:49;;;;;;;0.63;0.63;;;;;;;-3.53;64.50;101488.75;5107632;28;20024;-68
2024/03/18 04:18:16;;;;;;;0.55;0.55;;;;;;;-3.64;64.81;101472.81;5107656;28;20020;-69
2024/03/18 04:20:43;;;;;;;0.60;0.60;;;;;;;-3.56;64.61;101487.69;5107901;28;20024;-69
2024/03/18 04:23:09;;;;;;;14.02;12.73;;;;;;;-3.55;64.66;101487.81;5107424;28;20024;-69
2024/03/18 04:25:34;;;;;;;0.60;0.60;;;;;;;-3.54;64.56;101487.00;5107832;28;20034;-69
2024/03/18 04:28:02;;;;;;;0.60;0.60;;;;;;;-3.63;64.62;101492.38;5089335;28;20050;-69
2024/03/18 04:30:29;;;;;;;0.60;0.60;;;;;;;-3.68;64.90;101488.63;5107034;28;20016;-68
2024/03/18 04:32:55;;;;;;;0.60;0.60;;;;;;;-3.66;64.85;101492.13;5088292;28;20031;-68
2024/03/18 04:35:20;;;;;;;0.77;0.77;;;;;;;-3.64;64.73;101480.44;5107339;28;20094;-70
2024/03/18 04:37:51;;;;;;;0.70;0.70;;;;;;;-3.68;64.79;101495.34;5107240;28;20025;-68
2024/03/18 04:40:18;;;;;;;0.80;0.80;;;;;;;-3.59;64.21;101478.19;5107271;28;20027;-68
2024/03/18 04:42:44;;;;;;;0.60;0.60;;;;;;;-3.71;64.75;101473.19;5107387;28;20076;-70
2024/03/18 04:45:11;;;;;;;0.60;0.60;;;;;;;-3.75;64.76;101481.38;5107197;28;20032;-68
2024/03/18 04:47:39;;;;;;;0.60;0.60;;;;;;;-3.78;64.90;101471.91;5088949;28;20016;-68
2024/03/18 04:50:10;;;;;;;0.60;0.60;;;;;;;-3.72;64.85;101479.03;5089135;28;20020;-69
2024/03/18 04:52:36;;;;;;;0.77;0.77;;;;;;;-3.77;64.93;101473.66;5106678;28;20052;-68
2024/03/18 04:55:09;;;;;;;0.70;0.70;;;;;;;-3.85;64.94;101467.19;5088533;28;20077;-69
2024/03/18 04:57:35;;;;;;;0.60;0.60;;;;;;;-3.81;64.93;101465.72;5106571;28;20034;-68
2024/03/18 05:00:06;;;;;;;0.60;0.60;;;;;;;-3.88;65.06;101464.41;5106534;28;20024;-68
2024/03/18 05:02:31;;;;;;;0.75;0.75;;;;;;;-3.86;65.30;101467.94;5106787;28;20026;-68
2024/03/18 05:04:56;;;;;;;0.60;0.60;;;;;;;-3.87;65.15;101469.63;5106566;28;20044;-69
2024/03/18 05:07:22;;;;;;;0.60;0.60;;;;;;;-3.90;65.39;101460.94;5106611;28;20031;-69
2024/03/18 05:09:53;;;;;;;0.60;0.60;;;;;;;-3.90;65.41;101461.78;5106762;28;20078;-68
2024/03/18 05:12:19;;;;;;;0.70;0.70;;;;;;;-3.98;65.36;101442.66;5106466;28;20080;-69
2024/03/18 05:14:44;;;;;;;0.60;0.60;;;;;;;-3.95;65.38;101455.53;5088225;28;20020;-69
2024/03/18 05:17:10;;;;;;;0.60;0.60;;;;;;;-3.88;65.05;101451.72;5106432;28;20044;-69
2024/03/18 05:19:35;;;;;;;0.85;0.75;;;;;;;-3.94;65.39;101459.81;5087946;28;20085;-68
2024/03/18 05:22:00;;;;;;;0.70;0.70;;;;;;;-3.95;65.43;101459.72;5106371;28;20016;-68
2024/03/18 05:24:26;;;;;;;0.50;0.50;;;;;;;-3.88;65.30;101449.19;5106160;28;20035;-69
2024/03/18 05:26:51;;;;;;;0.60;0.60;;;;;;;-3.85;65.56;101457.03;5106297;28;20027;-67
2024/03/18 05:29:16;;;;;;;0.60;0.60;;;;;;;-3.66;65.30;101446.44;5106198;28;20023;-69
2024/03/18 05:31:45;;;;;;;0.50;0.50;;;;;;;-3.68;65.56;101459.81;5105939;28;20028;-67
2024/03/18 05:34:10;;;;;;;0.60;0.60;;;;;;;-3.70;65.61;101443.59;5087907;28;20023;-68
2024/03/18 05:36:35;;;;;;;0.60;0.60;;;;;;;-3.65;65.08;101449.88;5105884;28;20184;-67
2024/03/18 05:39:02;;;;;;;0.50;0.50;;;;;;;-3.68;64.95;101444.59;5106242;28;20050;-68
2024/03/18 05:41:27;;;;;;;0.50;0.50;;;;;;;-3.65;64.64;101445.69;5105953;28;20031;-68
2024/03/18 05:43:53;;;;;;;0.63;0.63;;;;;;;-3.69;64.81;101461.47;5087619;28;20020;-68
2024/03/18 05:46:18;;;;;;;0.60;0.60;;;;;;;-3.59;64.41;101457.03;5105820;28;20024;-69
2024/03/18 05:48:43;;;;;;;0.60;0.60;;;;;;;-3.65;64.52;101462.56;5106051;28;20099;-67
2024/03/18 05:51:09;;;;;;;0.60;0.60;;;;;;;-3.75;64.73;101478.81;5087287;28;20051;-68
2024/03/18 05:53:35;;;;;;;0.55;0.55;;;;;;;-3.79;64.75;101452.38;5106009;28;20050;-68
2024/03/18 05:56:00;;;;;;;0.60;0.60;;;;;;;-3.74;64.88;101468.78;5105833;28;20129;-68
2024/03/18 05:58:25;;;;;;;0.60;0.60;;;;;;;-3.72;65.02;101461.25;5105796;28;20020;-68
2024/03/18 06:00:51;;;;;;;0.60;0.60;;;;;;;-3.64;64.82;101454.16;5087466;28;20024;-68
2024/03/18 06:03:16;;;;;;;0.60;0.60;;;;;;;-3.58;64.64;101456.25;5087672;28;20024;-69
2024/03/18 06:05:42;;;;;;;0.50;0.50;;;;;;;-3.53;64.52;101460.84;5105773;28;20088;-68
2024/03/18 06:08:07;;;;;;;0.60;0.60;;;;;;;-3.50;64.37;101447.47;5105554;28;20035;-68
2024/03/18 06:10:33;;;;;;;0.50;0.50;;;;;;;-3.44;64.58;101452.06;5087396;28;20059;-67
2024/03/18 06:12:58;;;;;;;0.52;0.52;;;;;;;-3.43;64.24;101462.31;5105672;28;20031;-68
2024/03/18 06:15:23;;;;;;;0.60;0.60;;;;;;;-3.35;64.13;101457.75;5087464;28;20020;-68
2024/03/18 06:17:49;;;;;;;2.78;1.27;;;;;;;-3.19;64.66;101458.75;5087435;28;20016;-68
2024/03/18 06:20:15;;;;;;;0.60;0.60;;;;;;;-2.88;64.38;101465.81;5105547;28;20024;-69
2024/03/18 06:22:41;;;;;;;0.50;0.50;;;;;;;-2.60;64.08;101449.75;5087255;28;20097;-69
2024/03/18 06:27:53;;;;;;;0.82;0.82;;;;;;;-1.81;64.10;101451.09;5105548;28;20392;-68
2024/03/18 06:30:19;;;;;;;0.60;0.60;;;;;;;-1.48;63.44;101450.41;5087166;28;20031;-68
2024/03/18 06:32:44;;;;;;;0.50;0.50;;;;;;;-1.23;60.96;101453.50;5105098;28;20024;-70
2024/03/18 06:35:10;;;;;;;45.13;2.40;;;;;;;-1.43;60.04;101443.94;5105226;28;20035;-68
2024/03/18 06:37:36;;;;;;;0.50;0.50;;;;;;;-1.61;60.53;101446.28;5105224;28;20023;-69
2024/03/18 06:40:06;;;;;;;0.82;0.65;;;;;;;-1.50;59.84;101454.53;5086937;28;20112;-68
2024/03/18 06:42:32;;;;;;;0.95;0.80;;;;;;;-1.58;59.68;101449.00;5105512;28;20020;-73
2024/03/18 06:44:57;;;;;;;0.52;0.52;;;;;;;-1.41;60.29;101459.31;5105051;28;20089;-73
2024/03/18 06:47:22;;;;;;;0.50;0.50;;;;;;;-1.04;60.31;101446.09;5105078;28;20032;-75
2024/03/18 06:49:48;;;;;;;0.75;0.75;;;;;;;-0.81;59.64;101438.84;5105245;28;20050;-74
2024/03/18 06:52:13;;;;;;;0.65;0.65;;;;;;;-0.60;59.17;101445.91;5105068;28;20048;-73
2024/03/18 06:54:39;;;;;;;0.50;0.50;;;;;;;-0.57;58.49;101427.34;5105139;28;20027;-72
2024/03/18 06:57:04;;;;;;;0.70;0.70;;;;;;;-0.48;57.28;101437.19;5089920;28;20028;-74
2024/03/18 06:59:30;;;;;;;0.50;0.50;;;;;;;-0.52;56.12;101434.47;5109091;28;20027;-73
2024/03/18 07:01:55;;;;;;;0.70;0.70;;;;;;;-0.75;56.15;101434.09;5091106;28;20016;-73
2024/03/18 07:04:20;;;;;;;0.60;0.60;;;;;;;-0.83;56.74;101417.47;5109154;28;20468;-72
2024/03/18 07:06:46;;;;;;;0.50;0.50;;;;;;;-0.60;55.56;101428.06;5108889;28;20024;-72
2024/03/18 07:09:11;;;;;;;0.50;0.50;;;;;;;-0.86;54.99;101440.25;5090967;28;20016;-75
2024/03/18 07:11:36;;;;;;;0.50;0.50;;;;;;;-1.15;55.49;101429.34;5109113;28;20069;-75
2024/03/18 07:14:02;;;;;;;0.60;0.60;;;;;;;-1.45;56.38;101430.22;5090940;28;20118;-74
2024/03/18 07:16:28;;;;;;;0.50;0.50;;;;;;;-1.57;55.93;101424.41;5090983;28;20447;-75
2024/03/18 07:18:53;;;;;;;0.50;0.50;;;;;;;-1.53;56.14;101427.22;5090995;28;20024;-75
2024/03/18 07:21:18;;;;;;;0.52;0.52;;;;;;;-1.82;57.24;101430.63;5108961;28;20024;-70
2024/03/18 07:23:43;;;;;;;0.60;0.60;;;;;;;-1.78;58.08;101430.91;5108895;28;20105;-73
2024/03/18 07:26:09;;;;;;;0.50;0.50;;;;;;;-1.66;57.86;101427.31;5108944;28;20016;-73
2024/03/18 07:28:34;;;;;;;0.57;0.57;;;;;;;-1.60;58.17;101435.31;5108635;28;20050;-73
2024/03/18 07:31:00;;;;;;;0.50;0.50;;;;;;;-1.50;57.56;101439.25;5108759;28;20024;-74
2024/03/18 07:33:27;;;;;;;0.50;0.50;;;;;;;-1.45;57.93;101431.91;5108574;28;20028;-73
2024/03/18 07:35:52;;;;;;;0.60;0.60;;;;;;;-1.28;57.48;101413.34;5090418;28;20020;-73
2024/03/18 07:38:17;;;;;;;0.55;0.55;;;;;;;-1.34;56.62;101423.19;5090267;28;20024;-72
2024/03/18 07:40:43;;;;;;;0.63;0.63;;;;;;;-1.18;57.29;101426.63;5105750;28;20028;-73
2024/03/18 07:43:11;;;;;;;0.60;0.60;;;;;;;-1.02;56.37;101413.91;5107911;28;20079;-71
2024/03/18 07:45:40;;;;;;;0.50;0.50;;;;;;;-0.85;57.05;101431.84;5090276;28;20019;-72
2024/03/18 07:48:08;;;;;;;0.50;0.50;;;;;;;-0.62;56.13;101427.09;5090552;28;20116;-71
2024/03/18 07:50:35;;;;;;;0.80;0.80;;;;;;;-0.50;56.39;101412.44;5108363;28;20137;-73
2024/03/18 07:53:04;;;;;;;0.50;0.50;;;;;;;-0.38;55.37;101416.44;5108046;28;20020;-77
2024/03/18 07:55:29;;;;;;;0.60;0.60;;;;;;;-0.36;54.47;101425.06;5108442;28;20107;-72
2024/03/18 07:57:55;;;;;;;0.50;0.50;;;;;;;-0.55;55.21;101419.00;5108091;28;20361;-72
2024/03/18 08:00:20;;;;;;;0.50;0.50;;;;;;;-0.51;56.08;101415.78;5108364;28;20047;-75
2024/03/18 08:02:46;;;;;;;0.60;0.60;;;;;;;-0.32;54.62;101419.31;5108235;28;20095;-70
2024/03/18 08:05:11;;;;;;;0.60;0.60;;;;;;;-0.42;55.03;101428.19;5090123;28;20020;-72
2024/03/18 08:07:40;;;;;;;0.50;0.50;;;;;;;-0.28;55.11;101425.47;5088646;28;20079;-71
2024/03/18 08:10:06;;;;;;;0.70;0.70;;;;;;;-0.23;55.13;101428.25;5108473;28;20039;-74
2024/03/18 08:12:31;;;;;;;4.40;1.60;;;;;;;-0.17;55.76;101418.38;5108125;28;20024;-71
2024/03/18 08:14:57;;;;;;;0.50;0.50;;;;;;;0.05;55.44;101425.47;5108077;28;20031;-72
2024/03/18 08:17:22;;;;;;;0.50;0.50;;;;;;;0.10;55.21;101418.91;5108214;28;20035;-71
2024/03/18 08:19:48;;;;;;;1.67;0.82;;;;;;;0.34;55.04;101430.28;5090019;28;20091;-73
2024/03/18 08:22:19;;;;;;;0.65;0.65;;;;;;;0.31;53.87;101425.91;5090005;28;20020;-74
2024/03/18 08:24:49;;;;;;;0.60;0.60;;;;;;;0.18;53.26;101410.75;5107941;28;20024;-72
2024/03/18 08:27:14;;;;;;;0.40;0.40;;;;;;;0.18;53.77;101428.63;5107521;28;20020;-73
2024/03/18 08:29:40;;;;;;;0.50;0.50;;;;;;;0.19;53.20;101423.59;5089773;28;20031;-71
2024/03/18 08:32:06;;;;;;;0.50;0.50;;;;;;;0.12;53.17;101413.88;5107620;28;20460;-75
2024/03/18 08:34:31;;;;;;;0.60;0.60;;;;;;;0.13;53.35;101423.28;5089596;28;20023;-74
2024/03/18 08:36:59;;;;;;;0.60;0.60;;;;;;;0.05;53.02;101420.34;5089517;28;20020;-76
2024/03/18 08:39:25;;;;;;;0.60;0.60;;;;;;;0.06;51.85;101405.91;5089150;28;20020;-73
2024/03/18 08:41:50;;;;;;;0.60;0.60;;;;;;;-0.19;52.65;101417.44;5107772;28;20031;-75
2024/03/18 08:44:15;;;;;;;0.57;0.57;;;;;;;-0.25;52.43;101417.97;5089427;28;20046;-74
2024/03/18 08:46:42;;;;;;;0.50;0.50;;;;;;;-0.37;52.75;101410.56;5107455;28;20028;-75
2024/03/18 08:49:08;;;;;;;2.05;0.70;;;;;;;-0.43;53.08;101416.19;5107882;28;20069;-75
2024/03/18 08:51:34;;;;;;;0.60;0.60;;;;;;;-0.44;53.55;101404.25;5107474;28;20036;-74
2024/03/18 08:53:59;;;;;;;0.60;0.60;;;;;;;-0.52;53.53;101414.06;5107642;28;20020;-75
2024/03/18 08:56:24;;;;;;;0.60;0.60;;;;;;;-0.39;54.16;101407.94;5107504;28;20035;-74
2024/03/18 08:58:50;;;;;;;0.50;0.50;;;;;;;-0.14;53.15;101419.41;5107526;28;20035;-74
2024/03/18 09:01:15;;;;;;;0.50;0.50;;;;;;;-0.15;53.07;101424.44;5089304;28;20024;-74
2024/03/18 09:03:41;;;;;;;0.60;0.60;;;;;;;-0.14;52.96;101418.53;5107393;28;20095;-75
2024/03/18 09:06:06;;;;;;;0.60;0.60;;;;;;;-0.14;53.11;101423.63;5107392;28;20087;-75
2024/03/18 09:08:32;;;;;;;1.95;0.80;;;;;;;-0.06;53.70;101424.91;5107180;28;20016;-76
2024/03/18 09:10:58;;;;;;;0.50;0.50;;;;;;;0.12;52.94;101421.56;5088723;28;20407;-75
2024/03/18 09:13:24;;;;;;;0.50;0.50;;;;;;;0.31;52.30;101412.25;5107233;28;20105;-76
2024/03/18 09:15:49;;;;;;;0.60;0.60;;;;;;;0.25;52.81;101410.28;5107160;28;20020;-74
2024/03/18 09:18:14;;;;;;;3.30;1.85;;;;;;;0.60;53.19;101420.50;5106884;28;20032;-75
2024/03/18 09:20:40;;;;;;;0.65;0.65;;;;;;;0.77;52.28;101420.44;5088679;28;20063;-74
2024/03/18 09:23:08;;;;;;;0.50;0.50;;;;;;;1.05;51.32;101406.41;5106988;28;20097;-75
2024/03/18 09:25:35;;;;;;;0.50;0.50;;;;;;;1.07;50.33;101407.38;5107044;28;20020;-75
2024/03/18 09:28:00;;;;;;;0.50;0.50;;;;;;;1.14;49.94;101395.72;5107001;28;20540;-76
2024/03/18 09:30:27;;;;;;;0.57;0.57;;;;;;;1.09;50.77;101395.50;5088807;28;20032;-75
2024/03/18 09:32:53;;;;;;;0.50;0.50;;;;;;;1.60;51.25;101404.63;5106751;28;20028;-75
2024/03/18 09:35:18;;;;;;;0.60;0.60;;;;;;;1.96;50.93;101404.50;5106577;28;20157;-74
2024/03/18 09:37:44;;;;;;;0.60;0.60;;;;;;;2.53;49.52;101400.00;5088335;28;20023;-74
2024/03/18 09:40:10;;;;;;;0.82;0.63;;;;;;;2.60;48.53;101398.56;5088453;28;20087;-75
2024/03/18 09:42:36;;;;;;;0.50;0.50;;;;;;;2.81;46.80;101387.41;5106731;28;20016;-76
2024/03/18 09:45:02;;;;;;;0.50;0.50;;;;;;;2.90;46.93;101384.31;5106632;28;20070;-76
2024/03/18 09:47:31;;;;;;;0.60;0.60;;;;;;;3.02;46.20;101392.50;5106623;28;20491;-76
2024/03/18 09:49:57;;;;;;;0.50;0.50;;;;;;;3.19;45.97;101382.91;5106590;28;20028;-75
2024/03/18 09:52:25;;;;;;;0.93;0.90;;;;;;;3.40;44.29;101387.09;5087879;28;20046;-76
2024/03/18 09:54:51;;;;;;;0.40;0.40;;;;;;;3.43;44.02;101381.19;5088305;28;20133;-75
2024/03/18 09:57:23;;;;;;;0.60;0.60;;;;;;;3.78;44.20;101383.28;5088692;28;20045;-75
2024/03/18 09:59:50;;;;;;;0.50;0.50;;;;;;;4.06;43.66;101379.09;5106723;28;20441;-77
2024/03/18 10:02:16;;;;;;;0.45;0.45;;;;;;;4.05;43.06;101380.78;5106411;28;20066;-74
2024/03/18 10:04:45;;;;;;;0.50;0.50;;;;;;;4.25;42.19;101387.44;5106448;28;20499;-75
2024/03/18 10:07:16;;;;;;;0.70;0.70;;;;;;;4.20;41.99;101393.28;5088080;28;20055;-75
2024/03/18 10:09:44;;;;;;;1.00;0.88;;;;;;;4.18;43.56;101379.53;5088199;28;20023;-76
2024/03/18 10:12:15;;;;;;;0.50;0.50;;;;;;;4.45;44.01;101386.41;5106148;28;20408;-75
2024/03/18 10:14:42;;;;;;;10.07;0.93;;;;;;;4.66;42.20;101376.75;5088014;28;20087;-75
2024/03/18 10:17:18;;;;;;;0.50;0.50;;;;;;;4.73;41.63;101377.81;5106112;28;20391;-75
2024/03/18 10:19:44;;;;;;;0.50;0.50;;;;;;;4.76;42.75;101380.50;5087860;28;20028;-75
2024/03/18 10:22:14;;;;;;;0.70;0.70;;;;;;;5.28;42.47;101380.31;5105989;28;20024;-76
2024/03/18 10:24:41;;;;;;;0.88;0.73;;;;;;;5.52;41.55;101371.53;5106147;28;20028;-76
2024/03/18 10:27:08;;;;;;;0.52;0.43;;;;;;;5.65;41.88;101372.75;5105976;28;20028;-76
2024/03/18 10:29:34;;;;;;;0.75;0.50;;;;;;;6.02;42.79;101375.47;5105986;28;20471;-75
2024/03/18 10:32:01;;;;;;;0.60;0.60;;;;;;;6.29;41.11;101371.88;5086900;28;20101;-75
2024/03/18 10:34:35;;;;;;;0.50;0.50;;;;;;;6.41;40.13;101364.44;5105929;28;20020;-77
2024/03/18 10:37:03;;;;;;;5.25;0.70;;;;;;;6.39;39.03;101360.94;5087697;28;20024;-76
2024/03/18 10:39:46;;;;;;;0.40;0.40;;;;;;;6.24;38.77;101363.16;5106134;28;20024;-74
2024/03/18 10:42:16;;;;;;;3.60;0.80;;;;;;;6.03;39.41;101356.56;5106069;28;20020;-75
2024/03/18 10:44:51;;;;;;;0.50;0.50;;;;;;;6.45;41.37;101358.50;5106094;28;20400;-76
2024/03/18 10:47:18;;;;;;;0.40;0.40;;;;;;;7.04;40.82;101358.09;5106005;28;20106;-76
2024/03/18 10:49:44;;;;;;;0.40;0.40;;;;;;;7.44;40.20;101364.09;5105751;28;20027;-77
2024/03/18 10:52:11;;;;;;;0.50;0.50;;;;;;;7.83;40.44;101363.97;5105264;28;20044;-77
2024/03/18 10:54:37;;;;;;;0.50;0.50;;;;;;;8.25;41.29;101356.94;5105668;28;20032;-77
2024/03/18 10:57:03;;;;;;;0.47;0.47;;;;;;;8.89;40.23;101346.69;5105737;28;20030;-77
2024/03/18 10:59:29;;;;;;;0.93;0.68;;;;;;;9.12;38.04;101349.56;5105737;28;20020;-76
2024/03/18 11:01:54;;;;;;;0.60;0.60;;;;;;;8.99;37.67;101340.81;5105692;28;20353;-78
2024/03/18 11:04:29;;;;;;;0.40;0.40;;;;;;;8.90;36.49;101341.53;5105741;28;20027;-75
2024/03/18 11:06:55;;;;;;;0.60;0.60;;;;;;;8.40;36.03;101351.13;5105583;28;20024;-77
2024/03/18 11:09:23;;;;;;;0.65;0.55;;;;;;;8.06;36.96;101348.00;5105636;28;20039;-77
2024/03/18 11:11:49;;;;;;;0.50;0.50;;;;;;;8.40;36.80;101345.94;5105960;28;20024;-77
2024/03/18 11:14:28;;;;;;;0.50;0.50;;;;;;;8.54;37.81;101337.53;5106196;28;20024;-77
2024/03/18 11:16:56;;;;;;;4.35;0.77;;;;;;;8.91;36.11;101343.25;5105543;28;20087;-76
2024/03/18 11:19:25;;;;;;;0.40;0.40;;;;;;;8.79;36.69;101346.56;5105513;28;20024;-76
2024/03/18 11:21:58;;;;;;;1.48;0.70;;;;;;;9.24;35.47;101342.81;5105301;28;20016;-75
2024/03/18 11:24:23;;;;;;;0.40;0.40;;;;;;;9.78;37.12;101332.16;5087187;28;20032;-77